Terminal Aerodrome Forecast
Issued by NWS Spokane, WA

Home | Current Version | Previous Version | Text Only | Print | Product List | Glossary On
Versions: 1 2 3 4 5 6 7 8 9 10 11 12 13 14 15
000
FTUS46 KOTX 041142
TAFGEG
TAF
KGEG 041142Z 0412/0512 18008KT P6SM SCT120
     FM041400 18007KT P6SM VCSH SCT100 BKN150
     FM041600 19008KT P6SM FEW080 SCT120
     FM050000 06005KT P6SM VCSH SCT070 BKN100=

USA.gov is the U.S. government's official web portal to all federal, state and local government web resources and services.